Time;durP1;ratioP1;P1;durP2;ratioP2;P2;SDS_P1;SDS_P2;PMS_P1;PMS_P2;Temp;Humidity;BMP_temperature;BMP_pressure;BME280_temperature;BME280_humidity;BME280_pressure;Samples;Min_cycle;Max_cycle;Signal;HPM_P1;HPM_P2
2023/01/08 00:01:16;;;;;;;4.85;2.58;;;;;;;13.97;58.00;100288.94;4957678;28;124199;-68
2023/01/08 00:03:44;;;;;;;4.25;2.40;;;;;;;13.97;58.02;100296.09;4955697;28;114756;-69
2023/01/08 00:06:14;;;;;;;4.95;3.10;;;;;;;13.97;57.98;100296.09;4960562;28;114199;-69
2023/01/08 00:08:41;;;;;;;4.65;2.78;;;;;;;13.95;57.91;100292.69;4949387;28;124008;-69
2023/01/08 00:11:09;;;;;;;4.93;2.83;;;;;;;13.95;57.85;100298.00;4956805;28;124393;-69
2023/01/08 00:13:36;;;;;;;4.53;2.40;;;;;;;13.92;57.84;100298.19;4950893;28;114103;-69
2023/01/08 00:16:05;;;;;;;5.55;2.50;;;;;;;13.91;57.99;100291.19;4956863;28;113470;-69
2023/01/08 00:18:33;;;;;;;2.40;1.85;;;;;;;13.91;57.93;100301.84;4948205;28;124858;-69
2023/01/08 00:21:00;;;;;;;4.32;2.75;;;;;;;13.89;57.95;100303.75;4952643;28;123062;-69
2023/01/08 00:23:27;;;;;;;3.53;2.38;;;;;;;13.88;57.88;100291.38;4957182;28;114084;-69
2023/01/08 00:25:54;;;;;;;6.00;2.63;;;;;;;13.87;57.95;100289.69;4951120;28;113933;-69
2023/01/08 00:28:22;;;;;;;3.85;2.10;;;;;;;13.85;57.89;100287.13;4937875;28;125152;-69
2023/01/08 00:30:49;;;;;;;3.35;2.30;;;;;;;13.85;57.82;100275.63;4948204;28;123596;-69
2023/01/08 00:33:16;;;;;;;4.00;2.20;;;;;;;13.83;57.80;100279.25;4942878;28;115868;-69
2023/01/08 00:35:43;;;;;;;5.13;2.47;;;;;;;13.82;57.86;100282.00;4936183;28;114651;-69
2023/01/08 00:38:11;;;;;;;3.13;2.30;;;;;;;13.81;58.04;100285.63;4956291;28;124693;-69
2023/01/08 00:40:39;;;;;;;5.75;2.13;;;;;;;13.80;57.80;100268.78;4948255;28;123599;-69
2023/01/08 00:43:06;;;;;;;5.50;2.60;;;;;;;13.80;58.03;100262.63;4945285;28;114892;-69
2023/01/08 00:45:33;;;;;;;3.67;2.50;;;;;;;13.79;58.08;100269.75;4925605;28;113345;-68
2023/01/08 00:48:00;;;;;;;5.20;2.58;;;;;;;13.80;57.96;100268.78;4951229;28;124015;-69
2023/01/08 00:50:28;;;;;;;5.97;2.60;;;;;;;13.80;58.02;100258.16;4950625;28;122982;-69
2023/01/08 00:52:55;;;;;;;3.67;2.47;;;;;;;13.81;58.06;100259.88;4949302;28;114314;-69
2023/01/08 00:55:22;;;;;;;2.70;2.20;;;;;;;13.81;58.03;100265.19;4947309;28;114939;-69
2023/01/08 00:57:49;;;;;;;3.28;2.00;;;;;;;13.81;58.10;100259.88;4950554;28;124771;-69
2023/01/08 01:00:16;;;;;;;4.40;2.40;;;;;;;13.83;58.11;100257.94;4952403;28;124478;-69
2023/01/08 01:02:44;;;;;;;4.25;2.00;;;;;;;13.85;58.00;100254.34;4952623;28;114376;-69
2023/01/08 01:05:14;;;;;;;4.22;2.60;;;;;;;13.84;57.98;100248.16;4950729;28;114706;-69
2023/01/08 01:07:42;;;;;;;7.07;3.58;;;;;;;13.86;57.95;100248.03;4954079;28;123789;-69
2023/01/08 01:10:11;;;;;;;7.93;3.47;;;;;;;13.86;57.98;100250.72;4953889;28;123881;-68
2023/01/08 01:12:39;;;;;;;7.45;3.13;;;;;;;13.86;57.99;100245.38;4961261;28;113661;-68
2023/01/08 01:15:09;;;;;;;4.95;2.60;;;;;;;13.86;58.11;100234.75;4959279;28;113838;-69
2023/01/08 01:17:41;;;;;;;3.83;2.03;;;;;;;13.86;57.91;100234.75;4960264;28;123605;-69
2023/01/08 01:20:10;;;;;;;6.43;2.67;;;;;;;13.86;57.84;100234.75;4960870;28;124375;-69
2023/01/08 01:22:37;;;;;;;5.18;2.13;;;;;;;13.87;57.95;100231.13;4965637;28;115315;-69
2023/01/08 01:25:05;;;;;;;5.25;2.72;;;;;;;13.86;57.98;100240.06;4961784;28;115244;-69
2023/01/08 01:27:32;;;;;;;3.85;1.95;;;;;;;13.87;57.99;100241.78;4961191;28;123434;-68
2023/01/08 01:30:00;;;;;;;6.65;2.55;;;;;;;13.87;57.96;100225.81;4965600;28;123741;-69
2023/01/08 01:32:27;;;;;;;3.33;2.10;;;;;;;13.87;58.03;100231.97;4963593;28;114650;-69
2023/01/08 01:34:54;;;;;;;4.70;2.22;;;;;;;13.89;58.09;100245.19;4963196;28;114179;-69
2023/01/08 01:37:21;;;;;;;4.45;2.17;;;;;;;13.89;58.01;100239.84;4964702;28;124802;-69
2023/01/08 01:39:48;;;;;;;3.40;1.88;;;;;;;13.90;57.99;100236.22;4964296;28;123803;-69
2023/01/08 01:45:12;;;;;;;9.82;2.55;;;;;;;13.90;57.88;100220.25;4963729;28;114269;-68
2023/01/08 01:47:40;;;;;;;5.07;2.22;;;;;;;13.90;57.95;100225.56;4966820;28;124450;-67
2023/01/08 01:50:21;;;;;;;3.90;2.00;;;;;;;13.88;57.90;100236.34;4968409;28;124234;-68
2023/01/08 01:52:56;;;;;;;6.45;2.22;;;;;;;13.89;57.84;100239.84;4953836;28;115562;-68
2023/01/08 01:55:25;;;;;;;3.70;1.98;;;;;;;13.88;58.00;100232.81;4951488;28;114186;-68
2023/01/08 01:58:10;;;;;;;4.43;2.20;;;;;;;13.87;57.89;100236.44;4965262;28;124748;-69
2023/01/08 02:00:37;;;;;;;5.03;2.30;;;;;;;13.88;57.98;100232.81;4949389;28;124055;-68
2023/01/08 02:03:05;;;;;;;3.97;2.38;;;;;;;13.90;58.00;100238.88;4940295;28;114323;-68
2023/01/08 02:05:49;;;;;;;7.22;2.50;;;;;;;13.90;58.08;100237.09;4938737;28;115495;-68
2023/01/08 02:08:25;;;;;;;5.72;2.60;;;;;;;13.90;57.96;100239.75;4957219;28;123440;-68
2023/01/08 02:11:20;;;;;;;6.28;2.58;;;;;;;13.92;58.01;100258.25;4948561;28;123227;-68
2023/01/08 02:13:56;;;;;;;4.77;2.10;;;;;;;13.93;58.08;100252.84;4960230;28;115257;-69
2023/01/08 02:16:56;;;;;;;6.18;2.42;;;;;;;13.93;58.18;100258.16;4951378;28;114447;-68
2023/01/08 02:19:39;;;;;;;5.53;1.80;;;;;;;13.90;57.94;100246.88;4937236;28;123022;-69
2023/01/08 02:22:45;;;;;;;5.63;1.92;;;;;;;13.82;57.96;100261.59;4948336;28;124240;-69
2023/01/08 02:25:26;;;;;;;2.97;1.27;;;;;;;13.72;57.44;100257.81;4952725;28;113944;-69
2023/01/08 02:27:55;;;;;;;2.33;1.10;;;;;;;13.58;57.48;100247.25;4946761;28;114294;-70
2023/01/08 02:30:23;;;;;;;3.47;1.23;;;;;;;13.44;57.44;100246.38;4950938;28;124389;-69
2023/01/08 02:32:50;;;;;;;2.92;1.10;;;;;;;13.32;57.57;100236.56;4945809;28;125300;-69
2023/01/08 02:35:17;;;;;;;1.88;0.90;;;;;;;13.22;57.58;100240.72;4951034;28;114138;-69
2023/01/08 02:37:45;;;;;;;4.35;1.00;;;;;;;13.12;57.66;100235.16;4958292;28;113909;-69
2023/01/08 02:40:23;;;;;;;2.45;0.90;;;;;;;13.04;57.62;100227.69;4950947;28;124030;-69
2023/01/08 02:42:58;;;;;;;3.20;1.00;;;;;;;12.95;57.75;100228.28;4948151;28;124168;-69
2023/01/08 02:45:25;;;;;;;3.65;0.88;;;;;;;12.88;57.92;100216.34;4948595;28;114241;-68
2023/01/08 02:48:01;;;;;;;3.75;0.82;;;;;;;12.81;57.94;100209.75;4949573;28;113002;-67
2023/01/08 02:50:37;;;;;;;2.33;0.93;;;;;;;12.74;58.35;100203.13;4952613;28;123996;-67
2023/01/08 02:53:16;;;;;;;1.92;0.80;;;;;;;12.69;58.32;100205.22;4969830;28;123558;-67
2023/01/08 02:55:52;;;;;;;3.05;0.90;;;;;;;12.63;58.35;100196.66;4950627;28;114097;-67
2023/01/08 02:58:22;;;;;;;3.95;0.93;;;;;;;12.59;58.52;100192.50;4961025;28;113978;-67
2023/01/08 03:00:49;;;;;;;4.00;1.13;;;;;;;12.55;58.68;100198.97;4952331;28;123587;-68
2023/01/08 03:03:20;;;;;;;5.20;0.95;;;;;;;12.52;58.81;100215.09;4954260;28;125958;-67
2023/01/08 03:05:52;;;;;;;2.88;0.70;;;;;;;12.50;58.99;100211.69;4947495;28;115167;-67
2023/01/08 03:08:20;;;;;;;2.78;0.90;;;;;;;12.44;58.80;100212.94;4952948;28;115287;-67
2023/01/08 03:11:04;;;;;;;4.60;0.85;;;;;;;12.41;58.97;100206.94;4957296;28;123915;-67
2023/01/08 03:13:55;;;;;;;2.15;0.93;;;;;;;12.35;59.11;100205.53;4945751;28;124739;-67
2023/01/08 03:16:32;;;;;;;2.13;0.90;;;;;;;12.31;59.15;100206.69;4948322;28;115219;-67
2023/01/08 03:19:10;;;;;;;2.88;0.85;;;;;;;12.27;59.42;100206.00;4951988;28;114285;-67
2023/01/08 03:21:41;;;;;;;4.82;0.90;;;;;;;12.25;59.39;100207.91;4957431;28;124760;-67
2023/01/08 03:24:12;;;;;;;2.08;0.85;;;;;;;12.25;59.42;100202.59;4959997;28;124368;-67
2023/01/08 03:26:42;;;;;;;2.67;0.95;;;;;;;12.24;59.49;100194.72;4958107;28;114595;-67
2023/01/08 03:29:14;;;;;;;1.45;0.70;;;;;;;12.22;59.59;100197.50;4951696;28;113939;-67
2023/01/08 03:31:44;;;;;;;3.90;0.80;;;;;;;12.23;59.80;100204.50;4951988;28;124743;-67
2023/01/08 03:34:14;;;;;;;4.18;0.80;;;;;;;12.23;59.80;100199.19;4950894;28;122476;-68
2023/01/08 03:36:46;;;;;;;3.03;0.90;;;;;;;12.22;59.92;100197.50;4955720;28;114903;-67
2023/01/08 03:39:29;;;;;;;3.38;1.05;;;;;;;12.23;59.84;100188.56;4948900;28;114513;-68
2023/01/08 03:42:01;;;;;;;4.63;1.00;;;;;;;12.23;59.86;100204.50;4960071;28;124614;-70
2023/01/08 03:44:28;;;;;;;2.38;0.90;;;;;;;12.23;59.98;100209.81;4951086;28;124055;-69
2023/01/08 03:46:56;;;;;;;6.63;1.15;;;;;;;12.22;59.89;100201.94;4957655;28;114348;-70
2023/01/08 03:49:27;;;;;;;4.53;0.80;;;;;;;12.21;60.08;100190.47;4953336;28;114523;-70
2023/01/08 03:51:54;;;;;;;3.40;0.80;;;;;;;12.21;60.03;100200.25;4965011;28;124637;-70
2023/01/08 03:54:30;;;;;;;2.65;0.80;;;;;;;12.20;60.06;100188.75;4950197;28;123983;-67
2023/01/08 03:56:57;;;;;;;;;;;;;;;12.17;59.77;100183.66;4947167;28;115137;-67
2023/01/08 03:59:24;;;;;;;3.60;0.90;;;;;;;12.16;59.94;100179.28;4949146;28;115050;-67
2023/01/08 04:01:51;;;;;;;4.13;0.90;;;;;;;12.16;59.99;100171.31;4950256;28;123745;-67
2023/01/08 04:04:18;;;;;;;4.28;0.80;;;;;;;12.15;60.15;100180.25;4951701;28;124068;-68
2023/01/08 04:06:45;;;;;;;3.80;0.80;;;;;;;12.14;60.14;100173.22;4946438;28;114543;-67
2023/01/08 04:09:12;;;;;;;2.65;0.90;;;;;;;12.14;60.24;100172.38;4951079;28;113962;-68
2023/01/08 04:11:40;;;;;;;3.30;0.70;;;;;;;12.13;60.28;100166.22;4954109;28;124959;-67
2023/01/08 04:14:07;;;;;;;3.00;0.80;;;;;;;12.13;60.34;100170.66;4954667;28;125191;-67
2023/01/08 04:16:34;;;;;;;2.90;0.80;;;;;;;12.12;60.51;100168.97;4950021;28;113878;-68
2023/01/08 04:19:01;;;;;;;3.15;1.00;;;;;;;12.10;60.33;100166.41;4943519;28;115041;-67
2023/01/08 04:21:28;;;;;;;2.45;0.80;;;;;;;12.10;60.43;100166.41;4950654;28;124144;-67
2023/01/08 04:23:55;;;;;;;4.03;0.90;;;;;;;12.11;60.54;100157.50;4951084;28;123782;-67
2023/01/08 04:26:22;;;;;;;4.07;0.90;;;;;;;12.12;60.56;100159.19;4960724;28;114152;-68
2023/01/08 04:28:49;;;;;;;1.92;0.85;;;;;;;12.13;60.45;100158.25;4957340;28;112712;-68
2023/01/08 04:31:17;;;;;;;2.00;0.93;;;;;;;12.15;60.55;100148.41;4940396;28;124860;-68
2023/01/08 04:33:44;;;;;;;3.65;1.00;;;;;;;12.15;60.51;100148.41;4944330;28;123918;-68
2023/01/08 04:36:11;;;;;;;3.78;1.08;;;;;;;12.15;60.44;100148.41;4948168;28;114579;-68
2023/01/08 04:38:38;;;;;;;2.90;0.90;;;;;;;12.15;60.61;100143.09;4952711;28;113861;-68
2023/01/08 04:41:05;;;;;;;3.08;0.90;;;;;;;12.15;60.68;100143.09;4954527;28;124249;-68
2023/01/08 04:43:32;;;;;;;3.05;0.90;;;;;;;12.16;60.60;100134.16;4950053;28;124497;-68
2023/01/08 04:46:02;;;;;;;7.00;1.17;;;;;;;12.17;60.53;100119.09;4949616;28;116293;-68
2023/01/08 04:48:30;;;;;;;2.53;1.10;;;;;;;12.18;60.51;100132.25;4941638;28;115102;-68
2023/01/08 04:50:58;;;;;;;4.18;1.25;;;;;;;12.17;60.65;100125.25;4941609;28;124554;-68
2023/01/08 04:53:26;;;;;;;4.95;1.27;;;;;;;12.18;60.45;100126.09;4949746;28;123695;-67
2023/01/08 04:55:54;;;;;;;4.30;1.40;;;;;;;12.17;60.50;100117.28;4935342;28;112717;-68
2023/01/08 04:58:21;;;;;;;3.83;1.38;;;;;;;12.17;60.68;100119.94;4956702;28;113239;-68
2023/01/08 05:00:48;;;;;;;4.18;1.45;;;;;;;12.16;60.51;100107.59;4954626;28;124099;-68
2023/01/08 05:03:15;;;;;;;5.95;1.27;;;;;;;12.15;60.66;100103.28;4955325;28;124420;-68
2023/01/08 05:05:43;;;;;;;1.40;1.05;;;;;;;12.14;60.66;100104.19;4942573;28;114285;-68
2023/01/08 05:08:10;;;;;;;2.25;1.00;;;;;;;12.14;60.82;100109.50;4951237;28;114581;-68
2023/01/08 05:10:37;;;;;;;3.53;1.02;;;;;;;12.14;60.73;100120.13;4941260;28;124434;-68
2023/01/08 05:13:04;;;;;;;3.35;1.10;;;;;;;12.14;60.59;100120.13;4959589;28;124600;-68
2023/01/08 05:15:31;;;;;;;2.90;0.90;;;;;;;12.15;60.81;100127.16;4959047;28;114373;-67
2023/01/08 05:18:03;;;;;;;3.58;0.73;;;;;;;12.15;60.40;100111.22;4957997;28;114116;-68
2023/01/08 05:20:31;;;;;;;2.05;0.80;;;;;;;12.17;60.29;100114.63;4952086;28;124102;-67
2023/01/08 05:22:58;;;;;;;2.25;0.70;;;;;;;12.19;60.24;100120.69;4959584;28;125100;-68
2023/01/08 05:25:26;;;;;;;2.13;0.70;;;;;;;12.19;60.11;100112.75;4964957;28;113603;-67
2023/01/08 05:27:53;;;;;;;1.95;0.80;;;;;;;12.20;60.08;100125.03;4957221;28;117114;-68
2023/01/08 05:30:20;;;;;;;2.83;0.88;;;;;;;12.22;60.17;100128.47;4957358;28;124035;-68
2023/01/08 05:32:47;;;;;;;1.88;1.00;;;;;;;12.23;60.00;100129.31;4956187;28;124738;-67
2023/01/08 05:35:14;;;;;;;3.70;1.40;;;;;;;12.22;60.17;100117.88;4959644;28;115308;-68
2023/01/08 05:37:41;;;;;;;1.83;1.05;;;;;;;12.22;60.18;100117.00;4960462;28;114957;-67
2023/01/08 05:40:09;;;;;;;3.97;1.13;;;;;;;12.22;60.33;100112.56;4958059;28;123975;-68
2023/01/08 05:42:36;;;;;;;2.08;0.90;;;;;;;12.23;60.29;100116.91;4960385;28;123001;-68
2023/01/08 05:45:05;;;;;;;2.50;1.40;;;;;;;12.22;60.37;100112.56;4965439;28;113226;-68
2023/01/08 05:47:33;;;;;;;3.88;1.40;;;;;;;12.21;60.38;100105.53;4964218;28;113994;-67
2023/01/08 05:50:00;;;;;;;4.05;1.30;;;;;;;12.22;60.46;100107.25;4943416;28;123268;-67
2023/01/08 05:52:28;;;;;;;3.58;1.20;;;;;;;12.22;60.53;100107.25;4957381;28;124786;-68
2023/01/08 05:54:55;;;;;;;4.28;1.35;;;;;;;12.23;60.46;100108.94;4955940;28;114974;-68
2023/01/08 05:57:22;;;;;;;3.13;1.50;;;;;;;12.23;60.29;100103.63;4951592;28;113743;-68
2023/01/08 05:59:49;;;;;;;2.72;1.30;;;;;;;12.26;60.38;100102.56;4957500;28;124908;-68
2023/01/08 06:02:16;;;;;;;4.88;1.27;;;;;;;12.27;60.34;100098.97;4954838;28;124227;-68
2023/01/08 06:04:43;;;;;;;3.08;1.33;;;;;;;12.29;60.19;100104.19;4952073;28;114411;-68
2023/01/08 06:07:10;;;;;;;3.13;1.58;;;;;;;12.30;60.25;100089.94;4953411;28;113881;-68
2023/01/08 06:09:37;;;;;;;3.88;1.40;;;;;;;12.30;60.21;100088.16;4953324;28;124106;-68
2023/01/08 06:12:05;;;;;;;5.60;1.40;;;;;;;12.30;60.02;100093.47;4935651;28;122936;-68
2023/01/08 06:14:32;;;;;;;2.63;1.10;;;;;;;12.31;59.93;100099.63;4950541;28;115534;-68
2023/01/08 06:16:59;;;;;;;5.88;1.30;;;;;;;12.33;59.96;100108.34;4943063;28;114532;-68
2023/01/08 06:19:26;;;;;;;2.90;1.15;;;;;;;12.31;59.84;100111.09;4950317;28;124200;-68
2023/01/08 06:21:53;;;;;;;2.83;1.20;;;;;;;12.33;59.70;100118.97;4952886;28;123129;-68
2023/01/08 06:24:20;;;;;;;4.00;0.98;;;;;;;12.31;59.66;100126.19;4958255;28;115553;-68
2023/01/08 06:26:47;;;;;;;4.53;1.15;;;;;;;12.27;59.65;100126.38;4956165;28;114771;-68
2023/01/08 06:29:14;;;;;;;4.07;0.90;;;;;;;12.25;59.74;100136.22;4960118;28;123240;-68
2023/01/08 06:31:41;;;;;;;5.18;1.23;;;;;;;12.22;59.48;100149.72;4941373;28;124265;-69
2023/01/08 06:34:08;;;;;;;2.65;0.93;;;;;;;12.19;59.30;100144.59;4956704;28;114526;-69
2023/01/08 06:36:35;;;;;;;3.38;1.10;;;;;;;12.16;59.16;100144.78;4952495;28;114913;-69
2023/01/08 06:39:07;;;;;;;2.33;1.00;;;;;;;12.11;59.04;100138.94;4938395;28;123355;-69
2023/01/08 06:41:34;;;;;;;3.22;0.93;;;;;;;12.08;59.18;100136.44;4961076;28;123796;-69
2023/01/08 06:44:01;;;;;;;3.75;1.00;;;;;;;12.03;59.05;100149.16;4954500;28;114993;-69
2023/01/08 06:46:29;;;;;;;4.25;1.00;;;;;;;11.98;58.92;100152.09;4955230;28;113963;-69
2023/01/08 06:48:56;;;;;;;7.25;1.23;;;;;;;11.95;58.87;100156.75;4956644;28;124726;-69
2023/01/08 06:51:23;;;;;;;4.82;1.02;;;;;;;11.88;58.73;100162.41;4952012;28;124479;-69
2023/01/08 06:53:50;;;;;;;5.45;1.20;;;;;;;11.84;58.71;100163.50;4949510;28;113445;-69
2023/01/08 06:56:17;;;;;;;4.20;1.00;;;;;;;11.78;58.76;100161.25;4951622;28;114227;-69
2023/01/08 06:58:44;;;;;;;2.90;1.05;;;;;;;11.73;58.53;100158.00;4958511;28;124255;-69
2023/01/08 07:01:14;;;;;;;3.88;0.90;;;;;;;11.67;58.63;100164.53;4949742;28;124052;-69
2023/01/08 07:03:42;;;;;;;5.35;0.88;;;;;;;11.63;58.47;100156.88;4952796;28;114912;-69
2023/01/08 07:06:15;;;;;;;3.45;0.95;;;;;;;11.58;58.13;100158.94;4949754;28;114007;-69
2023/01/08 07:08:43;;;;;;;1.65;0.80;;;;;;;11.53;58.09;100167.19;4952388;28;122679;-69
2023/01/08 07:11:10;;;;;;;1.88;0.50;;;;;;;11.49;58.23;100161.22;4948970;28;123808;-68
2023/01/08 07:13:38;;;;;;;3.38;0.73;;;;;;;11.45;58.22;100170.31;4948639;28;115490;-69
2023/01/08 07:16:09;;;;;;;2.33;1.02;;;;;;;11.41;58.17;100163.44;4949745;28;114878;-68
2023/01/08 07:18:37;;;;;;;3.33;0.80;;;;;;;11.36;58.38;100165.53;4952245;28;123988;-68
2023/01/08 07:21:06;;;;;;;3.10;1.05;;;;;;;11.32;58.30;100153.41;4952531;28;123969;-68
2023/01/08 07:23:34;;;;;;;4.45;0.85;;;;;;;11.31;58.08;100162.31;4947269;28;114037;-69
2023/01/08 07:26:02;;;;;;;4.43;1.20;;;;;;;11.26;58.27;100154.63;4949660;28;114210;-69
2023/01/08 07:28:30;;;;;;;2.28;0.80;;;;;;;11.22;58.44;100158.38;4949642;28;124378;-69
2023/01/08 07:31:01;;;;;;;2.50;0.82;;;;;;;11.20;58.18;100164.72;4945365;28;123258;-70
2023/01/08 07:33:28;;;;;;;3.25;0.80;;;;;;;11.18;58.40;100158.66;4947623;28;114106;-67
2023/01/08 07:35:56;;;;;;;5.22;1.00;;;;;;;11.15;58.40;100156.19;4946085;28;114102;-67
2023/01/08 07:38:23;;;;;;;7.93;1.30;;;;;;;11.12;58.28;100156.38;4946036;28;124718;-68
2023/01/08 07:40:50;;;;;;;8.35;1.02;;;;;;;11.08;58.41;100159.22;4948082;28;123831;-67
2023/01/08 07:43:18;;;;;;;4.03;1.13;;;;;;;11.06;58.50;100157.59;4948431;28;114101;-68
2023/01/08 07:45:45;;;;;;;4.22;1.05;;;;;;;11.02;58.32;100162.22;4951067;28;114161;-68
2023/01/08 07:48:15;;;;;;;3.53;1.00;;;;;;;11.00;58.45;100157.94;4948520;28;124152;-70
2023/01/08 07:50:43;;;;;;;2.47;1.00;;;;;;;10.98;58.20;100154.53;4948968;28;124371;-69
2023/01/08 07:53:12;;;;;;;5.47;0.93;;;;;;;10.96;58.43;100157.25;4946342;28;114681;-72
2023/01/08 07:55:39;;;;;;;3.45;1.00;;;;;;;10.94;58.25;100164.44;4960079;28;114956;-70
2023/01/08 07:58:10;;;;;;;5.93;0.88;;;;;;;10.91;58.37;100164.63;4947793;28;124029;-70
2023/01/08 08:00:37;;;;;;;3.83;1.05;;;;;;;10.89;58.46;100166.53;4961368;28;124241;-70
2023/01/08 08:03:06;;;;;;;6.18;0.88;;;;;;;10.89;58.35;100166.53;4948142;28;114681;-70
2023/01/08 08:05:33;;;;;;;3.80;1.00;;;;;;;10.87;58.43;100168.41;4946298;28;113801;-69
2023/01/08 08:08:01;;;;;;;2.97;0.95;;;;;;;10.84;58.22;100163.28;4938898;28;123274;-69
2023/01/08 08:10:28;;;;;;;4.38;0.93;;;;;;;10.80;58.39;100157.28;4943079;28;123262;-69
2023/01/08 08:12:55;;;;;;;5.10;1.10;;;;;;;10.80;58.46;100156.44;4948975;28;114484;-69
2023/01/08 08:15:22;;;;;;;3.00;0.80;;;;;;;10.78;58.57;100153.03;4954541;28;114663;-69
2023/01/08 08:17:49;;;;;;;3.85;0.90;;;;;;;10.77;58.32;100153.97;4949640;28;123986;-69
2023/01/08 08:20:16;;;;;;;2.38;1.02;;;;;;;10.76;58.54;100149.63;4949530;28;122851;-69
2023/01/08 08:22:43;;;;;;;5.20;0.77;;;;;;;10.75;58.41;100153.19;4948694;28;113608;-73
2023/01/08 08:25:11;;;;;;;4.07;1.25;;;;;;;10.73;58.62;100144.50;4947766;28;114845;-69
2023/01/08 08:27:38;;;;;;;6.32;1.15;;;;;;;10.71;58.47;100148.06;4948286;28;124083;-69
2023/01/08 08:30:06;;;;;;;4.55;0.90;;;;;;;10.71;58.65;100124.22;4949545;28;123745;-69
2023/01/08 08:32:33;;;;;;;3.80;0.90;;;;;;;10.71;58.62;100132.16;4940077;28;114192;-69
2023/01/08 08:35:01;;;;;;;3.75;1.33;;;;;;;10.73;58.49;100133.91;4945683;28;114589;-69
2023/01/08 08:37:28;;;;;;;3.42;1.00;;;;;;;10.73;58.62;100120.66;4949001;28;123766;-69
2023/01/08 08:39:55;;;;;;;3.88;1.00;;;;;;;10.75;58.69;100126.72;4948597;28;123637;-69
2023/01/08 08:42:22;;;;;;;5.40;0.95;;;;;;;10.77;58.84;100119.53;4948704;28;115019;-69
2023/01/08 08:44:49;;;;;;;4.00;0.88;;;;;;;10.79;58.92;100118.50;4950299;28;114875;-69
2023/01/08 08:47:16;;;;;;;4.88;0.90;;;;;;;10.83;58.75;100113.88;4947561;28;124908;-69
2023/01/08 08:49:43;;;;;;;4.45;1.20;;;;;;;10.86;59.05;100119.00;4948106;28;124129;-69
2023/01/08 08:52:10;;;;;;;6.82;1.25;;;;;;;10.90;58.88;100125.81;4931327;28;116057;-69
2023/01/08 08:54:40;;;;;;;7.40;2.17;;;;;;;10.94;58.81;100132.66;4949914;28;115106;-70
2023/01/08 08:57:08;;;;;;;3.35;0.95;;;;;;;10.98;59.10;100120.94;4948374;28;123858;-69
2023/01/08 08:59:35;;;;;;;7.40;1.50;;;;;;;11.02;59.29;100111.88;4956995;28;123758;-69
2023/01/08 09:02:03;;;;;;;6.28;1.25;;;;;;;11.06;58.91;100112.56;4953935;28;113221;-69
2023/01/08 09:04:32;;;;;;;5.43;1.38;;;;;;;11.08;58.96;100114.16;4960767;28;113987;-69
2023/01/08 09:06:59;;;;;;;5.80;1.05;;;;;;;11.13;58.92;100097.13;4934917;28;124082;-69
2023/01/08 09:09:26;;;;;;;5.15;1.10;;;;;;;11.16;59.37;100099.59;4948845;28;128269;-69
2023/01/08 09:11:55;;;;;;;8.18;1.25;;;;;;;11.18;58.91;100092.41;4949510;28;114581;-69
2023/01/08 09:14:22;;;;;;;6.43;1.25;;;;;;;11.21;59.00;100094.88;4936657;28;115413;-69
2023/01/08 09:16:50;;;;;;;6.68;1.50;;;;;;;11.23;58.96;100095.66;4967649;28;124821;-69
2023/01/08 09:19:17;;;;;;;5.78;1.10;;;;;;;11.26;59.01;100100.75;4934752;28;122097;-69
2023/01/08 09:21:44;;;;;;;5.32;1.15;;;;;;;11.27;58.68;100107.75;4948902;28;115049;-69
2023/01/08 09:24:11;;;;;;;9.93;1.45;;;;;;;11.29;58.72;100111.19;4948812;28;114048;-69
2023/01/08 09:26:38;;;;;;;5.25;1.15;;;;;;;11.30;58.73;100112.88;4948498;28;123978;-69
2023/01/08 09:29:05;;;;;;;5.55;1.65;;;;;;;11.31;58.97;100114.59;4949865;28;123852;-69
2023/01/08 09:31:32;;;;;;;6.45;1.50;;;;;;;11.31;58.65;100103.97;4943401;28;113319;-69
2023/01/08 09:34:00;;;;;;;5.20;1.20;;;;;;;11.31;58.81;100106.63;4945328;28;114227;-69
2023/01/08 09:36:27;;;;;;;6.40;1.23;;;;;;;11.33;58.79;100104.75;4929497;28;125107;-69
2023/01/08 09:38:54;;;;;;;6.75;1.20;;;;;;;11.34;58.83;100098.50;4947892;28;125523;-69
2023/01/08 09:41:30;;;;;;;6.55;1.27;;;;;;;11.34;59.01;100098.50;4947349;28;116647;-69
2023/01/08 09:43:59;;;;;;;6.22;1.40;;;;;;;11.39;58.96;100101.72;4933718;28;116102;-69
2023/01/08 09:46:28;;;;;;;5.30;1.23;;;;;;;11.40;58.99;100092.81;4946764;28;124879;-69
2023/01/08 09:48:59;;;;;;;6.07;1.10;;;;;;;11.43;58.90;100092.66;4948207;28;124492;-69
2023/01/08 09:51:33;;;;;;;5.85;1.30;;;;;;;11.46;59.00;100099.56;4946201;28;114644;-69
2023/01/08 09:54:01;;;;;;;6.60;1.60;;;;;;;11.49;59.04;100092.28;4932127;28;113565;-69
2023/01/08 09:56:29;;;;;;;6.15;1.25;;;;;;;11.53;59.05;100092.94;4940603;28;124472;-69
2023/01/08 09:59:01;;;;;;;7.53;1.38;;;;;;;11.57;59.13;100083.00;4951058;28;123635;-69
2023/01/08 10:01:33;;;;;;;4.05;1.38;;;;;;;11.61;59.29;100087.16;4962071;28;114392;-69
2023/01/08 10:04:15;;;;;;;7.50;1.65;;;;;;;11.64;59.21;100076.34;4959172;28;114936;-69
2023/01/08 10:06:51;;;;;;;5.30;1.27;;;;;;;11.67;59.22;100084.13;4958604;28;124227;-67
2023/01/08 10:09:24;;;;;;;3.85;1.60;;;;;;;11.71;59.27;100075.03;4954474;28;123539;-70
2023/01/08 10:11:53;;;;;;;8.98;1.70;;;;;;;11.73;58.98;100078.44;4950972;28;114132;-69
2023/01/08 10:14:27;;;;;;;7.30;2.05;;;;;;;11.75;59.09;100076.53;4951961;28;113610;-69
2023/01/08 10:16:59;;;;;;;4.40;1.25;;;;;;;11.79;59.18;100078.06;4947849;28;123957;-69
2023/01/08 10:19:27;;;;;;;9.38;1.60;;;;;;;11.83;59.24;100068.13;4963587;28;124592;-69
2023/01/08 10:21:55;;;;;;;9.75;1.60;;;;;;;11.86;59.29;100058.13;4951493;28;114509;-69
2023/01/08 10:24:38;;;;;;;6.60;1.50;;;;;;;11.90;58.92;100063.28;4951832;28;114299;-69
2023/01/08 10:27:07;;;;;;;7.20;1.60;;;;;;;11.94;59.13;100059.50;4937697;28;124096;-69
2023/01/08 10:29:34;;;;;;;5.25;1.30;;;;;;;11.96;59.12;100057.59;4949687;28;124278;-69
2023/01/08 10:32:13;;;;;;;8.07;1.40;;;;;;;11.98;59.27;100055.69;4950722;28;115600;-69
2023/01/08 10:34:43;;;;;;;7.75;1.48;;;;;;;12.02;59.16;100050.09;4961582;28;115371;-69
2023/01/08 10:37:28;;;;;;;5.60;1.30;;;;;;;12.06;59.23;100053.41;4949324;28;123437;-69
2023/01/08 10:40:07;;;;;;;6.20;1.42;;;;;;;12.10;59.16;100048.78;4949423;28;124774;-69
2023/01/08 10:42:35;;;;;;;3.50;1.02;;;;;;;12.13;59.31;100041.47;4951550;28;114902;-69
2023/01/08 10:45:09;;;;;;;4.28;1.30;;;;;;;12.17;59.26;100029.69;4965527;28;113900;-69
2023/01/08 10:47:37;;;;;;;5.25;1.35;;;;;;;12.22;59.21;100022.28;4940085;28;123986;-69
2023/01/08 10:50:15;;;;;;;6.32;1.65;;;;;;;12.25;59.31;100027.38;4957759;28;123661;-69
2023/01/08 10:52:52;;;;;;;5.97;1.20;;;;;;;12.29;59.22;100016.56;4957122;28;113443;-76
2023/01/08 10:55:28;;;;;;;4.13;1.10;;;;;;;12.32;59.12;100016.34;4942514;28;114637;-69
2023/01/08 10:57:59;;;;;;;2.72;1.08;;;;;;;12.35;59.13;100010.84;4954009;28;123920;-69
2023/01/08 11:00:34;;;;;;;3.53;0.90;;;;;;;12.38;59.10;100005.34;4954420;28;123654;-69
2023/01/08 11:03:05;;;;;;;3.60;1.10;;;;;;;12.42;59.19;100014.81;4949780;28;114408;-69
2023/01/08 11:05:35;;;;;;;3.45;0.90;;;;;;;12.42;59.18;100002.38;4950442;28;113634;-69
2023/01/08 11:08:05;;;;;;;2.88;1.15;;;;;;;12.45;59.06;99998.66;4951434;28;124183;-70
2023/01/08 11:10:35;;;;;;;2.50;1.10;;;;;;;12.46;59.19;99992.41;4948694;28;124388;-69
2023/01/08 11:13:05;;;;;;;4.18;1.00;;;;;;;12.50;59.19;99987.72;4949706;28;114526;-69
2023/01/08 11:15:39;;;;;;;1.20;0.90;;;;;;;12.56;59.22;99990.81;4947616;28;113643;-69
2023/01/08 11:18:17;;;;;;;6.53;1.00;;;;;;;12.63;59.30;99989.47;4950778;28;124247;-70
2023/01/08 11:20:46;;;;;;;3.55;0.90;;;;;;;12.71;59.16;99985.44;4948472;28;125132;-70
2023/01/08 11:23:23;;;;;;;2.33;0.88;;;;;;;12.78;59.21;99976.09;4943096;28;97224;-70
2023/01/08 11:25:53;;;;;;;2.05;0.82;;;;;;;12.86;59.09;99979.06;4946474;28;115108;-70
2023/01/08 11:28:29;;;;;;;2.97;0.90;;;;;;;12.94;59.13;99976.75;4955034;28;124404;-70
2023/01/08 11:31:12;;;;;;;3.65;1.00;;;;;;;13.05;59.14;99968.88;4952329;28;123787;-70